createdAt,value
2022-10-19T00:00:12.256Z,7.63
2022-10-19T00:01:15.080Z,7.63
2022-10-19T00:02:18.114Z,7.63
2022-10-19T00:03:58.020Z,7.56
2022-10-19T00:05:05.873Z,7.56
2022-10-19T00:06:08.515Z,7.56
2022-10-19T00:07:43.213Z,7.50
2022-10-19T00:08:45.872Z,7.50
2022-10-19T00:09:49.011Z,7.50
2022-10-19T00:11:23.469Z,7.50
2022-10-19T00:12:26.250Z,7.50
2022-10-19T00:13:29.253Z,7.50
2022-10-19T00:15:03.941Z,7.50
2022-10-19T00:16:09.219Z,7.50
2022-10-19T00:17:14.114Z,7.50
2022-10-19T00:18:49.020Z,7.50
2022-10-19T00:19:51.612Z,7.56
2022-10-19T00:20:54.527Z,7.50
2022-10-19T00:22:29.202Z,7.56
2022-10-19T00:23:32.597Z,7.50
2022-10-19T00:24:35.484Z,7.50
2022-10-19T00:26:10.400Z,7.50
2022-10-19T00:27:13.135Z,7.50
2022-10-19T00:28:15.952Z,7.50
2022-10-19T00:29:51.546Z,7.50
2022-10-19T00:30:54.273Z,7.50
2022-10-19T00:31:56.982Z,7.44
2022-10-19T00:33:31.474Z,7.50
2022-10-19T00:34:34.197Z,7.50
2022-10-19T00:35:36.876Z,7.44
2022-10-19T00:37:11.689Z,7.44
2022-10-19T00:38:14.439Z,7.50
2022-10-19T00:39:17.085Z,7.44
2022-10-19T00:40:51.835Z,7.44
2022-10-19T00:41:54.572Z,7.44
2022-10-19T00:42:57.423Z,7.50
2022-10-19T00:44:31.998Z,7.50
2022-10-19T00:45:34.926Z,7.44
2022-10-19T00:46:37.767Z,7.44
2022-10-19T00:48:12.361Z,7.44
2022-10-19T00:49:15.154Z,7.44
2022-10-19T00:50:17.934Z,7.44
2022-10-19T00:51:52.674Z,7.44
2022-10-19T00:52:55.420Z,7.44
2022-10-19T00:53:58.298Z,7.44
2022-10-19T00:55:32.832Z,7.38
2022-10-19T00:56:35.582Z,7.38
2022-10-19T00:57:38.642Z,7.38
2022-10-19T00:59:13.406Z,7.38
2022-10-19T01:00:12.764Z,7.31
2022-10-19T01:01:15.643Z,7.31
2022-10-19T01:02:18.776Z,7.31
2022-10-19T01:03:54.054Z,7.31
2022-10-19T01:04:56.824Z,7.31
2022-10-19T01:05:59.573Z,7.31
2022-10-19T01:07:34.506Z,7.31
2022-10-19T01:08:37.387Z,7.31
2022-10-19T01:09:40.128Z,7.25
2022-10-19T01:11:14.763Z,7.25
2022-10-19T01:12:17.392Z,7.31
2022-10-19T01:13:20.121Z,7.31
2022-10-19T01:14:54.817Z,7.25
2022-10-19T01:15:57.730Z,7.25
2022-10-19T01:17:00.404Z,7.25
2022-10-19T01:18:35.128Z,7.25
2022-10-19T01:19:37.968Z,7.25
2022-10-19T01:20:40.896Z,7.25
2022-10-19T01:22:15.476Z,7.25
2022-10-19T01:23:18.209Z,7.19
2022-10-19T01:24:20.938Z,7.19
2022-10-19T01:25:59.532Z,7.19
2022-10-19T01:27:02.409Z,7.13
2022-10-19T01:28:05.582Z,7.13
2022-10-19T01:29:41.032Z,7.06
2022-10-19T01:30:43.793Z,7.06
2022-10-19T01:31:46.797Z,7.06
2022-10-19T01:33:21.330Z,7.06
2022-10-19T01:34:24.674Z,7.06
2022-10-19T01:35:27.480Z,7.00
2022-10-19T01:37:01.980Z,7.00
2022-10-19T01:38:04.743Z,7.00
2022-10-19T01:39:07.409Z,7.06
2022-10-19T01:40:42.352Z,7.00
2022-10-19T01:41:45.438Z,7.00
2022-10-19T01:42:48.389Z,7.00
2022-10-19T01:44:24.190Z,7.00
2022-10-19T01:45:27.016Z,6.94
2022-10-19T01:46:29.804Z,6.94
2022-10-19T01:48:04.858Z,6.94
2022-10-19T01:49:07.544Z,6.94
2022-10-19T01:50:10.192Z,6.94
2022-10-19T01:51:44.780Z,6.94
2022-10-19T01:52:47.780Z,6.94
2022-10-19T01:53:50.679Z,6.94
2022-10-19T01:55:25.166Z,6.94
2022-10-19T01:56:28.004Z,6.88
2022-10-19T01:57:30.700Z,6.88
2022-10-19T01:59:05.257Z,6.88
2022-10-19T02:00:12.266Z,6.88
2022-10-19T02:01:14.899Z,6.88
2022-10-19T02:02:17.724Z,6.81
2022-10-19T02:03:52.829Z,6.81
2022-10-19T02:04:55.435Z,6.81
2022-10-19T02:05:58.110Z,6.81
2022-10-19T02:07:32.680Z,6.81
2022-10-19T02:08:35.403Z,6.81
2022-10-19T02:09:38.182Z,6.75
2022-10-19T02:11:12.921Z,6.75
2022-10-19T02:12:20.083Z,6.75
2022-10-19T02:13:24.332Z,6.75
2022-10-19T02:14:58.984Z,6.75
2022-10-19T02:16:01.723Z,6.69
2022-10-19T02:17:04.611Z,6.69
2022-10-19T02:18:39.087Z,6.69
2022-10-19T02:19:41.746Z,6.69
2022-10-19T02:20:44.526Z,6.69
2022-10-19T02:22:19.313Z,6.69
2022-10-19T02:23:22.909Z,6.69
2022-10-19T02:24:29.063Z,6.69
2022-10-19T02:26:03.644Z,6.69
2022-10-19T02:27:06.561Z,6.75
2022-10-19T02:28:09.313Z,6.75
2022-10-19T02:29:44.264Z,6.75
2022-10-19T02:30:46.915Z,6.75
2022-10-19T02:31:49.802Z,6.75
2022-10-19T02:33:24.296Z,6.75
2022-10-19T02:34:27.149Z,6.75
2022-10-19T02:35:29.785Z,6.75
2022-10-19T02:37:04.365Z,6.75
2022-10-19T02:38:11.546Z,6.75
2022-10-19T02:39:14.186Z,6.75
2022-10-19T02:40:49.145Z,6.69
2022-10-19T02:41:51.867Z,6.69
2022-10-19T02:42:54.496Z,6.69
2022-10-19T02:44:28.955Z,6.69
2022-10-19T02:45:31.604Z,6.69
2022-10-19T02:46:34.553Z,6.69
2022-10-19T02:48:09.619Z,6.63
2022-10-19T02:49:12.629Z,6.63
2022-10-19T02:50:15.401Z,6.63
2022-10-19T02:51:49.872Z,6.63
2022-10-19T02:52:52.761Z,6.56
2022-10-19T02:53:55.569Z,6.56
2022-10-19T02:55:34.400Z,6.56
2022-10-19T02:56:38.259Z,6.56
2022-10-19T02:57:41.056Z,6.50
2022-10-19T02:59:15.613Z,6.50
2022-10-19T03:00:11.334Z,6.50
2022-10-19T03:01:14.511Z,6.50
2022-10-19T03:02:17.582Z,6.50
2022-10-19T03:03:52.156Z,6.50
2022-10-19T03:04:55.106Z,6.50
2022-10-19T03:05:57.932Z,6.50
2022-10-19T03:07:33.166Z,6.44
2022-10-19T03:08:36.235Z,6.44
2022-10-19T03:09:39.148Z,6.44
2022-10-19T03:11:13.618Z,6.44
2022-10-19T03:12:16.336Z,6.44
2022-10-19T03:13:18.986Z,6.44
2022-10-19T03:14:53.777Z,6.44
2022-10-19T03:15:56.561Z,6.38
2022-10-19T03:16:59.639Z,6.38
2022-10-19T03:18:34.351Z,6.38
2022-10-19T03:19:37.252Z,6.38
2022-10-19T03:20:39.978Z,6.38
2022-10-19T03:22:16.750Z,6.38
2022-10-19T03:23:19.692Z,6.38
2022-10-19T03:24:22.429Z,6.31
2022-10-19T03:25:57.225Z,6.31
2022-10-19T03:27:04.099Z,6.31
2022-10-19T03:28:07.459Z,6.31
2022-10-19T03:29:42.298Z,6.31
2022-10-19T03:30:45.077Z,6.38
2022-10-19T03:31:47.915Z,6.38
2022-10-19T03:33:22.342Z,6.38
2022-10-19T03:34:25.229Z,6.38
2022-10-19T03:35:28.361Z,6.38
2022-10-19T03:37:02.815Z,6.38
2022-10-19T03:38:05.909Z,6.38
2022-10-19T03:39:08.890Z,6.38
2022-10-19T03:40:43.818Z,6.38
2022-10-19T03:41:46.499Z,6.38
2022-10-19T03:42:49.302Z,6.38
2022-10-19T03:44:24.152Z,6.38
2022-10-19T03:45:26.863Z,6.38
2022-10-19T03:46:29.685Z,6.44
2022-10-19T03:48:04.362Z,6.38
2022-10-19T03:49:07.270Z,6.38
2022-10-19T03:50:15.065Z,6.38
2022-10-19T03:51:49.606Z,6.38
2022-10-19T03:52:52.376Z,6.38
2022-10-19T03:53:55.218Z,6.38
2022-10-19T03:55:34.201Z,6.31
2022-10-19T03:56:37.101Z,6.31
2022-10-19T03:57:40.054Z,6.31
2022-10-19T03:59:14.779Z,6.31
2022-10-19T04:00:12.725Z,6.31
2022-10-19T04:01:15.623Z,6.25
2022-10-19T04:02:18.730Z,6.25
2022-10-19T04:03:53.389Z,6.25
2022-10-19T04:04:56.425Z,6.19
2022-10-19T04:05:42.020Z,6.19
2022-10-19T04:06:45.108Z,6.19
2022-10-19T04:07:47.910Z,6.19
2022-10-19T04:09:22.476Z,6.19
2022-10-19T04:10:25.409Z,6.19
2022-10-19T04:11:28.309Z,6.19
2022-10-19T04:13:02.820Z,6.25
2022-10-19T04:14:05.748Z,6.25
2022-10-19T04:15:43.654Z,6.25
2022-10-19T04:17:18.289Z,6.25
2022-10-19T04:18:23.482Z,6.25
2022-10-19T04:19:26.153Z,6.25
2022-10-19T04:21:01.121Z,6.25
2022-10-19T04:22:04.227Z,6.25
2022-10-19T04:23:07.083Z,6.25
2022-10-19T04:24:41.913Z,6.19
2022-10-19T04:25:44.808Z,6.19
2022-10-19T04:26:47.614Z,6.19
2022-10-19T04:28:22.750Z,6.19
2022-10-19T04:29:29.523Z,6.19
2022-10-19T04:30:32.869Z,6.13
2022-10-19T04:32:07.626Z,6.13
2022-10-19T04:33:10.476Z,6.13
2022-10-19T04:34:13.514Z,6.06
2022-10-19T04:35:52.432Z,6.06
2022-10-19T04:36:55.477Z,6.06
2022-10-19T04:37:58.479Z,6.06
2022-10-19T04:39:33.110Z,6.06
2022-10-19T04:40:36.124Z,6.06
2022-10-19T04:41:39.099Z,6.06
2022-10-19T04:43:13.759Z,6.06
2022-10-19T04:44:16.974Z,6.00
2022-10-19T04:45:19.988Z,6.00
2022-10-19T04:46:54.758Z,6.00
2022-10-19T04:47:57.771Z,6.00
2022-10-19T04:49:01.404Z,5.94
2022-10-19T04:50:43.067Z,5.94
2022-10-19T04:51:45.779Z,5.94
2022-10-19T04:52:48.610Z,5.94
2022-10-19T04:54:23.430Z,5.94
2022-10-19T04:55:26.240Z,5.94
2022-10-19T04:56:29.150Z,5.94
2022-10-19T04:58:03.846Z,5.94
2022-10-19T04:59:06.662Z,5.94
2022-10-19T05:00:12.401Z,5.94
2022-10-19T05:01:15.516Z,5.94
2022-10-19T05:02:22.229Z,5.94
2022-10-19T05:04:59.735Z,5.88
2022-10-19T05:06:02.484Z,5.88
2022-10-19T05:07:37.230Z,5.88
2022-10-19T05:08:40.101Z,5.88
2022-10-19T05:09:42.879Z,5.88
2022-10-19T05:11:22.463Z,5.88
2022-10-19T05:12:25.353Z,5.88
2022-10-19T05:13:28.217Z,5.88
2022-10-19T05:15:02.924Z,5.88
2022-10-19T05:16:05.760Z,5.88
2022-10-19T05:17:08.627Z,5.88
2022-10-19T05:18:43.816Z,5.88
2022-10-19T05:19:46.746Z,5.88
2022-10-19T05:20:49.614Z,5.81
2022-10-19T05:22:24.551Z,5.81
2022-10-19T05:23:27.455Z,5.81
2022-10-19T05:24:30.475Z,5.88
2022-10-19T05:26:10.638Z,5.81
2022-10-19T05:27:13.675Z,5.81
2022-10-19T05:28:17.155Z,5.81
2022-10-19T05:29:52.143Z,5.81
2022-10-19T05:30:55.103Z,5.81
2022-10-19T05:31:57.842Z,5.81
2022-10-19T05:33:32.386Z,5.81
2022-10-19T05:34:35.609Z,5.81
2022-10-19T05:35:38.364Z,5.81
2022-10-19T05:37:12.996Z,5.81
2022-10-19T05:38:16.342Z,5.81
2022-10-19T05:39:19.168Z,5.81
2022-10-19T05:40:53.984Z,5.81
2022-10-19T05:41:56.847Z,5.81
2022-10-19T05:42:59.865Z,5.81
2022-10-19T05:44:34.584Z,5.88
2022-10-19T05:45:37.495Z,5.88
2022-10-19T05:46:40.407Z,5.88
2022-10-19T05:48:17.887Z,5.88
2022-10-19T05:49:20.840Z,5.88
2022-10-19T05:50:23.680Z,5.88
2022-10-19T05:51:58.633Z,5.88
2022-10-19T05:53:01.426Z,5.88
2022-10-19T05:54:04.305Z,5.94
2022-10-19T05:55:43.239Z,5.94
2022-10-19T05:56:46.047Z,5.94
2022-10-19T05:57:49.011Z,5.94
2022-10-19T05:59:23.843Z,5.94
2022-10-19T06:00:12.057Z,5.94
2022-10-19T06:01:14.794Z,5.94
2022-10-19T06:02:17.929Z,5.94
2022-10-19T06:03:52.459Z,6.00
2022-10-19T06:04:55.454Z,6.00
2022-10-19T06:05:58.232Z,6.00
2022-10-19T06:07:33.409Z,6.00
2022-10-19T06:08:36.573Z,6.00
2022-10-19T06:09:39.160Z,6.00
2022-10-19T06:11:14.030Z,6.06
2022-10-19T06:12:19.417Z,6.06
2022-10-19T06:13:23.159Z,6.06
2022-10-19T06:14:57.739Z,6.06
2022-10-19T06:16:00.552Z,6.06
2022-10-19T06:17:03.304Z,6.06
2022-10-19T06:18:38.560Z,6.06
2022-10-19T06:19:41.272Z,6.06
2022-10-19T06:20:44.267Z,6.06
2022-10-19T06:22:23.901Z,6.06
2022-10-19T06:23:26.708Z,6.13
2022-10-19T06:24:29.819Z,6.13
2022-10-19T06:26:06.547Z,6.06
2022-10-19T06:27:09.700Z,6.06
2022-10-19T06:28:13.955Z,6.06
2022-10-19T06:29:48.478Z,6.06
2022-10-19T06:30:51.735Z,6.06
2022-10-19T06:32:00.535Z,6.06
2022-10-19T06:33:35.975Z,6.00
2022-10-19T06:34:42.435Z,6.00
2022-10-19T06:35:48.470Z,5.94
2022-10-19T06:37:23.175Z,5.94
2022-10-19T06:38:26.364Z,5.94
2022-10-19T06:39:29.416Z,5.94
2022-10-19T06:41:04.469Z,5.94
2022-10-19T06:42:07.157Z,5.94
2022-10-19T06:43:09.911Z,5.94
2022-10-19T06:44:44.476Z,5.94
2022-10-19T06:45:47.209Z,5.94
2022-10-19T06:46:50.023Z,5.94
2022-10-19T06:48:25.350Z,6.00
2022-10-19T06:49:28.276Z,6.00
2022-10-19T06:50:31.225Z,6.00
2022-10-19T06:52:06.479Z,6.06
2022-10-19T06:53:09.904Z,6.06
2022-10-19T06:54:12.795Z,6.06
2022-10-19T06:55:47.359Z,6.13
2022-10-19T06:57:53.114Z,6.13
2022-10-19T06:59:28.054Z,6.19
2022-10-19T07:00:12.619Z,6.19
2022-10-19T07:01:15.786Z,6.19
2022-10-19T07:02:19.328Z,6.19
2022-10-19T07:03:54.189Z,6.25
2022-10-19T07:04:57.097Z,6.25
2022-10-19T07:06:04.426Z,6.25
2022-10-19T07:07:39.021Z,6.31
2022-10-19T07:08:42.308Z,6.31
2022-10-19T07:09:45.265Z,6.31
2022-10-19T07:11:19.889Z,6.38
2022-10-19T07:12:26.722Z,6.38
2022-10-19T07:13:29.764Z,6.38
2022-10-19T07:15:04.794Z,6.44
2022-10-19T07:16:07.622Z,6.44
2022-10-19T07:17:17.018Z,6.50
2022-10-19T07:18:51.973Z,6.50
2022-10-19T07:19:54.805Z,6.50
2022-10-19T07:20:57.725Z,6.56
2022-10-19T07:22:32.435Z,6.56
2022-10-19T07:23:35.341Z,6.56
2022-10-19T07:24:38.143Z,6.63
2022-10-19T07:26:13.084Z,6.63
2022-10-19T07:27:16.178Z,6.69
2022-10-19T07:28:24.295Z,6.69
2022-10-19T07:29:58.929Z,6.75
2022-10-19T07:31:01.757Z,6.81
2022-10-19T07:32:04.803Z,6.81
2022-10-19T07:33:39.580Z,6.88
2022-10-19T07:34:42.449Z,6.94
2022-10-19T07:35:45.247Z,6.94
2022-10-19T07:37:20.003Z,7.00
2022-10-19T07:38:23.365Z,7.00
2022-10-19T07:39:26.282Z,7.06
2022-10-19T07:41:01.405Z,7.13
2022-10-19T07:42:04.217Z,7.13
2022-10-19T07:43:08.231Z,7.13
2022-10-19T07:44:45.870Z,7.19
2022-10-19T07:45:48.826Z,7.19
2022-10-19T07:46:51.558Z,7.25
2022-10-19T07:48:26.322Z,7.31
2022-10-19T07:49:29.318Z,7.31
2022-10-19T07:50:31.962Z,7.38
2022-10-19T07:52:06.930Z,7.38
2022-10-19T07:53:15.364Z,7.50
2022-10-19T07:54:18.222Z,7.50
2022-10-19T07:55:53.027Z,7.56
2022-10-19T07:56:55.881Z,7.56
2022-10-19T07:57:58.843Z,7.63
2022-10-19T07:59:33.520Z,7.69
2022-10-19T08:00:12.567Z,7.69
2022-10-19T08:01:16.423Z,7.75
2022-10-19T08:02:19.371Z,7.81
2022-10-19T08:06:18.242Z,7.94
2022-10-19T08:07:20.977Z,7.94
2022-10-19T08:08:24.081Z,8.00
2022-10-19T08:10:34.783Z,8.06
2022-10-19T08:11:37.657Z,8.13
2022-10-19T08:12:40.711Z,8.13
2022-10-19T08:14:15.638Z,8.19
2022-10-19T08:15:18.567Z,8.25
2022-10-19T08:16:21.498Z,8.25
2022-10-19T08:17:56.134Z,8.31
2022-10-19T08:18:59.237Z,8.31
2022-10-19T08:20:02.020Z,8.38
2022-10-19T08:21:36.880Z,8.38
2022-10-19T08:22:39.856Z,8.38
2022-10-19T08:23:49.825Z,8.44
2022-10-19T08:25:24.381Z,8.44
2022-10-19T08:26:27.283Z,8.50
2022-10-19T08:27:30.086Z,8.50
2022-10-19T08:29:05.142Z,8.50
2022-10-19T08:30:11.980Z,8.56
2022-10-19T08:31:14.805Z,8.56
2022-10-19T08:32:49.434Z,8.63
2022-10-19T08:33:52.221Z,8.63
2022-10-19T08:34:55.183Z,8.69
2022-10-19T08:36:34.635Z,8.75
2022-10-19T08:37:56.527Z,8.75
2022-10-19T08:39:01.019Z,8.81
2022-10-19T08:40:35.998Z,8.81
2022-10-19T08:41:38.918Z,8.88
2022-10-19T08:42:42.089Z,8.94
2022-10-19T08:44:16.725Z,8.94
2022-10-19T08:45:19.823Z,9.00
2022-10-19T08:46:22.758Z,9.06
2022-10-19T08:48:04.096Z,9.13
2022-10-19T08:49:07.184Z,9.13
2022-10-19T08:50:10.310Z,9.19
2022-10-19T08:51:45.006Z,9.25
2022-10-19T08:52:48.057Z,9.31
2022-10-19T08:53:50.833Z,9.31
2022-10-19T08:55:25.421Z,9.38
2022-10-19T08:56:49.362Z,9.44
2022-10-19T08:57:53.739Z,9.50
2022-10-19T08:59:28.560Z,9.56
2022-10-19T09:00:11.908Z,9.56
2022-10-19T09:01:15.276Z,9.63
2022-10-19T09:02:23.011Z,9.69
2022-10-19T09:04:30.680Z,9.81
2022-10-19T09:05:33.756Z,9.81
2022-10-19T09:06:36.572Z,9.88
2022-10-19T09:08:16.700Z,9.94
2022-10-19T09:09:20.940Z,10.00
2022-10-19T09:10:23.975Z,10.06
2022-10-19T09:11:58.631Z,10.13
2022-10-19T09:13:01.525Z,10.19
2022-10-19T09:14:21.953Z,10.25
2022-10-19T09:15:56.778Z,10.31
2022-10-19T09:16:59.414Z,10.38
2022-10-19T09:18:02.327Z,10.44
2022-10-19T09:19:37.146Z,10.50
2022-10-19T09:20:40.190Z,10.56
2022-10-19T09:21:47.367Z,10.56
2022-10-19T09:23:22.959Z,10.69
2022-10-19T09:24:25.908Z,10.69
2022-10-19T09:25:29.077Z,10.75
2022-10-19T09:27:03.915Z,10.81
2022-10-19T09:28:06.770Z,10.88
2022-10-19T09:29:20.877Z,10.94
2022-10-19T09:30:55.689Z,10.94
2022-10-19T09:33:01.339Z,11.06
2022-10-19T09:34:39.034Z,11.13
2022-10-19T09:35:41.813Z,11.19
2022-10-19T09:36:57.641Z,11.19
2022-10-19T09:38:43.977Z,11.31
2022-10-19T09:39:52.405Z,11.38
2022-10-19T09:40:58.365Z,11.38
2022-10-19T09:42:33.805Z,11.44
2022-10-19T09:43:37.120Z,11.50
2022-10-19T09:44:39.972Z,11.50
2022-10-19T09:46:20.120Z,11.56
2022-10-19T09:47:26.111Z,11.63
2022-10-19T09:48:29.921Z,11.69
2022-10-19T09:50:04.459Z,11.69
2022-10-19T09:51:07.337Z,11.69
2022-10-19T09:52:10.082Z,11.69
2022-10-19T09:53:44.711Z,11.69
2022-10-19T09:54:47.513Z,11.69
2022-10-19T09:55:50.396Z,11.69
2022-10-19T09:57:25.141Z,11.75
2022-10-19T09:58:32.120Z,11.75
2022-10-19T09:59:36.216Z,11.75
2022-10-19T10:00:12.543Z,11.81
2022-10-19T10:01:15.501Z,11.88
2022-10-19T10:02:30.549Z,11.88
2022-10-19T10:04:05.889Z,11.94
2022-10-19T10:05:08.632Z,11.94
2022-10-19T10:06:11.508Z,12.00
2022-10-19T10:07:46.257Z,12.06
2022-10-19T10:08:49.013Z,12.06
2022-10-19T10:09:52.320Z,12.06
2022-10-19T10:11:26.835Z,12.13
2022-10-19T10:12:29.657Z,12.19
2022-10-19T10:13:32.955Z,12.25
2022-10-19T10:15:10.630Z,12.38
2022-10-19T10:16:13.358Z,12.44
2022-10-19T10:17:16.132Z,12.50
2022-10-19T10:18:50.909Z,12.50
2022-10-19T10:19:54.008Z,12.50
2022-10-19T10:22:42.071Z,12.56
2022-10-19T10:23:44.775Z,12.56
2022-10-19T10:24:47.604Z,12.56
2022-10-19T10:26:22.592Z,12.50
2022-10-19T10:27:25.468Z,12.50
2022-10-19T10:28:28.776Z,12.44
2022-10-19T10:30:08.131Z,12.38
2022-10-19T10:31:10.989Z,12.38
2022-10-19T10:32:13.945Z,12.44
2022-10-19T10:34:37.599Z,12.56
2022-10-19T10:35:53.684Z,12.56
2022-10-19T10:36:56.608Z,12.56
2022-10-19T10:38:31.305Z,12.56
2022-10-19T10:39:34.236Z,12.63
2022-10-19T10:40:42.417Z,12.69
2022-10-19T10:42:16.959Z,12.81
2022-10-19T10:43:20.208Z,12.81
2022-10-19T10:44:23.251Z,12.88
2022-10-19T10:45:58.105Z,12.94
2022-10-19T10:47:00.857Z,13.00
2022-10-19T10:48:03.725Z,13.00
2022-10-19T10:49:39.820Z,12.94
2022-10-19T10:50:42.540Z,12.94
2022-10-19T10:51:49.206Z,12.94
2022-10-19T10:53:26.869Z,13.00
2022-10-19T10:54:29.781Z,13.06
2022-10-19T10:55:32.904Z,13.25
2022-10-19T10:57:07.552Z,13.25
2022-10-19T10:58:11.199Z,13.44
2022-10-19T10:59:19.817Z,13.50
2022-10-19T11:00:12.393Z,13.50
2022-10-19T11:01:15.458Z,13.50
2022-10-19T11:02:18.943Z,13.56
2022-10-19T11:03:53.653Z,13.69
2022-10-19T11:04:56.379Z,13.75
2022-10-19T11:05:59.257Z,13.75
2022-10-19T11:07:34.496Z,13.88
2022-10-19T11:08:37.621Z,13.88
2022-10-19T11:09:41.359Z,13.88
2022-10-19T11:11:16.149Z,13.81
2022-10-19T11:12:18.930Z,13.88
2022-10-19T11:13:27.075Z,13.88
2022-10-19T11:15:01.666Z,13.94
2022-10-19T11:16:04.684Z,14.00
2022-10-19T11:17:07.661Z,14.00
2022-10-19T11:18:43.000Z,13.88
2022-10-19T11:19:46.516Z,13.81
2022-10-19T11:20:49.330Z,13.81
2022-10-19T11:22:26.362Z,13.81
2022-10-19T11:23:30.659Z,13.81
2022-10-19T11:24:33.538Z,13.81
2022-10-19T11:26:12.512Z,13.75
2022-10-19T11:27:15.270Z,13.75
2022-10-19T11:28:19.171Z,13.81
2022-10-19T11:29:54.232Z,13.81
2022-10-19T11:30:56.976Z,13.81
2022-10-19T11:32:00.123Z,13.81
2022-10-19T11:33:34.992Z,13.88
2022-10-19T11:34:37.845Z,13.94
2022-10-19T11:35:40.713Z,14.00
2022-10-19T11:37:15.350Z,14.06
2022-10-19T11:38:54.792Z,14.06
2022-10-19T11:39:57.695Z,14.13
2022-10-19T11:42:03.174Z,14.13
2022-10-19T11:43:05.807Z,14.19
2022-10-19T11:44:13.203Z,14.19
2022-10-19T11:45:48.120Z,14.19
2022-10-19T11:46:51.071Z,14.19
2022-10-19T11:47:54.294Z,14.25
2022-10-19T11:49:35.527Z,14.31
2022-10-19T11:50:38.806Z,14.31
2022-10-19T11:52:12.869Z,14.38
2022-10-19T11:53:48.181Z,14.44
2022-10-19T11:54:55.262Z,14.44
2022-10-19T11:55:58.131Z,14.50
2022-10-19T11:57:57.368Z,14.56
2022-10-19T11:59:00.423Z,14.63
2022-10-19T12:00:15.276Z,14.56
2022-10-19T12:01:36.699Z,14.50
2022-10-19T12:02:40.230Z,14.44
2022-10-19T12:04:19.438Z,14.38
2022-10-19T12:05:22.348Z,14.31
2022-10-19T12:06:25.171Z,14.19
2022-10-19T12:07:59.938Z,14.19
2022-10-19T12:09:03.069Z,14.13
2022-10-19T12:10:05.971Z,14.13
2022-10-19T12:11:40.719Z,14.06
2022-10-19T12:12:43.564Z,14.00
2022-10-19T12:13:46.387Z,14.06
2022-10-19T12:15:21.375Z,14.19
2022-10-19T12:16:24.133Z,14.13
2022-10-19T12:17:27.864Z,14.19
2022-10-19T12:19:03.237Z,14.38
2022-10-19T12:20:06.093Z,14.44
2022-10-19T12:21:13.086Z,14.44
2022-10-19T12:22:47.813Z,14.44
2022-10-19T12:23:50.532Z,14.38
2022-10-19T12:24:53.490Z,14.44
2022-10-19T12:26:28.276Z,14.44
2022-10-19T12:27:31.213Z,14.44
2022-10-19T12:28:34.577Z,14.44
2022-10-19T12:30:09.369Z,14.31
2022-10-19T12:31:12.219Z,14.25
2022-10-19T12:32:15.198Z,14.31
2022-10-19T12:33:50.139Z,14.44
2022-10-19T12:34:53.087Z,14.50
2022-10-19T12:35:56.127Z,14.50
2022-10-19T12:37:30.637Z,14.50
2022-10-19T12:38:34.067Z,14.50
2022-10-19T12:39:51.633Z,14.50
2022-10-19T12:41:26.322Z,14.56
2022-10-19T12:42:29.275Z,14.75
2022-10-19T12:43:31.986Z,14.81
2022-10-19T12:45:06.810Z,14.81
2022-10-19T12:46:09.728Z,14.75
2022-10-19T12:47:12.576Z,14.75
2022-10-19T12:48:47.519Z,14.88
2022-10-19T12:49:50.369Z,14.88
2022-10-19T12:50:53.338Z,14.94
2022-10-19T12:52:27.974Z,14.94
2022-10-19T12:53:31.485Z,14.88
2022-10-19T12:54:34.468Z,14.81
2022-10-19T12:56:09.099Z,14.69
2022-10-19T12:57:12.032Z,14.63
2022-10-19T12:58:20.626Z,14.63
2022-10-19T13:00:00.013Z,14.56
2022-10-19T13:00:12.129Z,14.56
2022-10-19T13:01:15.650Z,14.56
2022-10-19T13:02:18.803Z,14.50
2022-10-19T13:03:54.376Z,14.44
2022-10-19T13:04:57.268Z,14.44
2022-10-19T13:06:00.066Z,14.38
2022-10-19T13:07:35.147Z,14.44
2022-10-19T13:08:38.423Z,14.50
2022-10-19T13:09:41.996Z,14.50
2022-10-19T13:11:17.049Z,14.50
2022-10-19T13:12:23.571Z,14.50
2022-10-19T13:13:28.939Z,14.50
2022-10-19T13:15:03.455Z,14.44
2022-10-19T13:16:06.424Z,14.38
2022-10-19T13:17:09.498Z,14.38
2022-10-19T13:18:49.878Z,14.38
2022-10-19T13:19:52.755Z,14.38
2022-10-19T13:20:55.672Z,14.38
2022-10-19T13:22:33.485Z,14.38
2022-10-19T13:23:36.736Z,14.38
2022-10-19T13:26:18.532Z,14.31
2022-10-19T13:27:21.388Z,14.31
2022-10-19T13:28:25.511Z,14.31
2022-10-19T13:30:00.685Z,14.25
2022-10-19T13:31:06.263Z,14.25
2022-10-19T13:32:12.677Z,14.19
2022-10-19T13:33:48.293Z,14.25
2022-10-19T13:34:50.954Z,14.19
2022-10-19T13:35:53.917Z,14.19
2022-10-19T13:37:33.889Z,14.13
2022-10-19T13:38:37.429Z,14.13
2022-10-19T13:39:40.339Z,14.06
2022-10-19T13:41:15.056Z,14.00
2022-10-19T13:42:18.171Z,14.00
2022-10-19T13:43:21.748Z,14.00
2022-10-19T13:44:56.405Z,14.06
2022-10-19T13:45:59.178Z,14.06
2022-10-19T13:47:01.864Z,14.06
2022-10-19T13:48:36.860Z,14.00
2022-10-19T13:49:39.661Z,14.00
2022-10-19T13:50:42.614Z,13.94
2022-10-19T13:52:17.123Z,13.94
2022-10-19T13:53:20.399Z,13.88
2022-10-19T13:54:23.402Z,13.88
2022-10-19T13:55:58.124Z,13.88
2022-10-19T13:57:01.019Z,13.88
2022-10-19T13:58:03.917Z,13.88
2022-10-19T13:59:38.752Z,13.88
2022-10-19T14:00:12.044Z,13.88
2022-10-19T14:01:14.935Z,13.81
2022-10-19T14:02:18.054Z,13.81
2022-10-19T14:03:57.933Z,13.75
2022-10-19T14:05:00.856Z,13.75
2022-10-19T14:06:03.659Z,13.75
2022-10-19T14:07:42.765Z,13.75
2022-10-19T14:08:46.735Z,13.75
2022-10-19T14:09:50.088Z,13.75
2022-10-19T14:11:47.501Z,13.69
2022-10-19T14:12:50.486Z,13.69
2022-10-19T14:13:53.259Z,13.69
2022-10-19T14:15:27.884Z,13.63
2022-10-19T14:16:30.838Z,13.56
2022-10-19T14:17:38.955Z,13.56
2022-10-19T14:19:25.886Z,13.50
2022-10-19T14:20:28.977Z,13.50
2022-10-19T14:21:31.673Z,13.50
2022-10-19T14:23:06.654Z,13.44
2022-10-19T14:24:09.606Z,13.50
2022-10-19T14:25:12.581Z,13.50
2022-10-19T14:26:47.376Z,13.50
2022-10-19T14:27:50.174Z,13.44
2022-10-19T14:28:52.849Z,13.44
2022-10-19T14:30:27.421Z,13.44
2022-10-19T14:31:30.172Z,13.50
2022-10-19T14:32:33.050Z,13.44
2022-10-19T14:34:13.543Z,13.44
2022-10-19T14:35:16.322Z,13.44
2022-10-19T14:36:19.160Z,13.44
2022-10-19T14:37:53.906Z,13.38
2022-10-19T14:38:57.110Z,13.38
2022-10-19T14:39:59.998Z,13.31
2022-10-19T14:41:40.148Z,13.31
2022-10-19T14:42:46.517Z,13.38
2022-10-19T14:43:49.255Z,13.38
2022-10-19T14:45:23.947Z,13.31
2022-10-19T14:46:27.045Z,13.31
2022-10-19T14:47:30.317Z,13.31
2022-10-19T14:49:05.109Z,13.31
2022-10-19T14:50:07.993Z,13.31
2022-10-19T14:51:11.021Z,13.31
2022-10-19T14:52:45.673Z,13.31
2022-10-19T14:53:48.610Z,13.31
2022-10-19T14:54:51.420Z,13.25
2022-10-19T14:56:30.257Z,13.25
2022-10-19T14:57:33.535Z,13.25
2022-10-19T14:58:36.722Z,13.25
2022-10-19T15:00:11.866Z,13.25
2022-10-19T15:01:15.097Z,13.25
2022-10-19T15:02:18.667Z,13.25
2022-10-19T15:03:55.753Z,13.25
2022-10-19T15:04:58.416Z,13.25
2022-10-19T15:06:01.481Z,13.25
2022-10-19T15:07:36.401Z,13.19
2022-10-19T15:08:39.277Z,13.19
2022-10-19T15:09:59.468Z,13.19
2022-10-19T15:11:37.915Z,13.19
2022-10-19T15:12:40.785Z,13.19
2022-10-19T15:13:43.533Z,13.13
2022-10-19T15:15:18.221Z,13.13
2022-10-19T15:16:20.924Z,13.06
2022-10-19T15:17:23.756Z,13.06
2022-10-19T15:19:30.615Z,13.06
2022-10-19T15:20:43.829Z,13.06
2022-10-19T15:22:13.664Z,13.00
2022-10-19T15:23:48.695Z,13.06
2022-10-19T15:24:51.719Z,13.00
2022-10-19T15:25:54.617Z,13.00
2022-10-19T15:27:52.912Z,12.94
2022-10-19T15:28:55.899Z,12.94
2022-10-19T15:29:58.991Z,12.94
2022-10-19T15:31:33.995Z,12.94
2022-10-19T15:32:37.318Z,12.94
2022-10-19T15:33:40.371Z,12.88
2022-10-19T15:35:14.816Z,12.88
2022-10-19T15:36:17.773Z,12.88
2022-10-19T15:37:20.714Z,12.88
2022-10-19T15:39:01.918Z,12.81
2022-10-19T15:40:36.524Z,12.81
2022-10-19T15:41:39.263Z,12.81
2022-10-19T15:43:14.427Z,12.75
2022-10-19T15:44:17.429Z,12.75
2022-10-19T15:45:20.189Z,12.69
2022-10-19T15:46:54.998Z,12.69
2022-10-19T15:47:57.833Z,12.69
2022-10-19T15:49:00.629Z,12.69
2022-10-19T15:50:35.238Z,12.63
2022-10-19T15:51:38.166Z,12.63
2022-10-19T15:52:41.008Z,12.63
2022-10-19T15:54:15.839Z,12.63
2022-10-19T15:55:18.733Z,12.63
2022-10-19T15:56:21.505Z,12.56
2022-10-19T15:57:56.144Z,12.56
2022-10-19T15:58:58.944Z,12.56
2022-10-19T16:00:01.730Z,12.50
2022-10-19T16:00:12.547Z,12.50
2022-10-19T16:01:15.251Z,12.50
2022-10-19T16:02:18.565Z,12.44
2022-10-19T16:03:53.547Z,12.44
2022-10-19T16:04:56.257Z,12.44
2022-10-19T16:05:40.850Z,12.44
2022-10-19T16:06:43.523Z,12.38
2022-10-19T16:07:46.444Z,12.38
2022-10-19T16:09:24.948Z,12.31
2022-10-19T16:10:27.596Z,12.31
2022-10-19T16:11:30.377Z,12.25
2022-10-19T16:13:04.956Z,12.25
2022-10-19T16:14:07.772Z,12.25
2022-10-19T16:15:16.882Z,12.19
2022-10-19T16:17:03.277Z,12.19
2022-10-19T16:18:06.173Z,12.19
2022-10-19T16:19:08.941Z,12.13